createdAt,value
2023-03-24T00:01:01.327Z,99105.09
2023-03-24T00:03:30.132Z,99103.50
2023-03-24T00:05:59.000Z,99107.75
2023-03-24T00:08:26.058Z,99119.34
2023-03-24T00:10:53.949Z,99121.19
2023-03-24T00:13:21.005Z,99123.41
2023-03-24T00:15:49.251Z,99124.63
2023-03-24T00:18:16.294Z,99122.38
2023-03-24T00:20:46.593Z,99133.19
2023-03-24T00:23:14.367Z,99128.31
2023-03-24T00:25:41.560Z,99131.81
2023-03-24T00:28:10.434Z,99139.13
2023-03-24T00:30:38.052Z,99137.09
2023-03-24T00:33:05.123Z,99132.81
2023-03-24T00:35:32.392Z,99143.97
2023-03-24T00:37:59.540Z,99134.44
2023-03-24T00:40:28.399Z,99144.59
2023-03-24T00:42:55.582Z,99147.22
2023-03-24T00:45:23.928Z,99144.41
2023-03-24T00:47:54.876Z,99147.25
2023-03-24T00:50:27.576Z,99147.88
2023-03-24T00:52:55.642Z,99155.19
2023-03-24T00:55:23.586Z,99160.44
2023-03-24T00:57:51.286Z,99160.44
2023-03-24T01:00:20.810Z,99157.81
2023-03-24T01:02:48.967Z,99157.81
2023-03-24T01:05:18.115Z,99147.31
2023-03-24T01:07:45.254Z,99157.88
2023-03-24T01:10:13.773Z,99153.22
2023-03-24T01:12:41.245Z,99160.31
2023-03-24T01:15:12.288Z,99159.13
2023-03-24T01:17:39.502Z,99159.13
2023-03-24T01:20:08.767Z,99164.78
2023-03-24T01:22:38.028Z,99166.44
2023-03-24T01:25:05.572Z,99171.13
2023-03-24T01:27:32.620Z,99181.06
2023-03-24T01:30:01.089Z,99173.75
2023-03-24T01:32:29.113Z,99183.25
2023-03-24T01:34:56.276Z,99179.44
2023-03-24T01:37:24.484Z,99180.03
2023-03-24T01:39:52.038Z,99189.19
2023-03-24T01:42:20.439Z,99183.31
2023-03-24T01:44:49.469Z,99195.09
2023-03-24T01:47:17.579Z,99192.47
2023-03-24T01:49:47.679Z,99190.59
2023-03-24T01:52:16.617Z,99188.78
2023-03-24T01:54:46.372Z,99189.00
2023-03-24T01:57:13.794Z,99191.22
2023-03-24T01:59:43.559Z,99191.25
2023-03-24T02:02:10.736Z,99190.81
2023-03-24T02:04:41.012Z,99199.16
2023-03-24T02:07:13.097Z,99192.25
2023-03-24T02:09:40.211Z,99201.41
2023-03-24T02:12:07.582Z,99214.97
2023-03-24T02:14:34.612Z,99215.19
2023-03-24T02:17:05.267Z,99220.06
2023-03-24T02:19:38.616Z,99219.47
2023-03-24T02:22:08.623Z,99230.59
2023-03-24T02:24:38.690Z,99228.97
2023-03-24T02:27:10.043Z,99231.19
2023-03-24T02:29:49.293Z,99231.41
2023-03-24T02:32:19.336Z,99228.34
2023-03-24T02:34:50.396Z,99235.88
2023-03-24T02:37:19.123Z,99240.94
2023-03-24T02:39:52.272Z,99247.00
2023-03-24T02:42:22.530Z,99244.78
2023-03-24T02:44:57.167Z,99249.25
2023-03-24T02:47:25.678Z,99249.03
2023-03-24T02:49:56.179Z,99251.25
2023-03-24T02:52:23.560Z,99249.63
2023-03-24T02:54:56.706Z,99253.50
2023-03-24T02:57:31.693Z,99257.13
2023-03-24T03:00:09.998Z,99259.34
2023-03-24T03:02:39.896Z,99261.97
2023-03-24T03:05:09.607Z,99262.78
2023-03-24T03:07:38.495Z,99266.25
2023-03-24T03:10:06.541Z,99268.88
2023-03-24T03:12:35.333Z,99268.28
2023-03-24T03:15:04.281Z,99271.50
2023-03-24T03:17:33.500Z,99272.53
2023-03-24T03:20:05.721Z,99274.75
2023-03-24T03:22:37.401Z,99264.81
2023-03-24T03:25:04.755Z,99267.84
2023-03-24T03:27:39.388Z,99278.41
2023-03-24T03:30:09.593Z,99277.16
2023-03-24T03:32:40.591Z,99275.53
2023-03-24T03:35:10.664Z,99270.66
2023-03-24T03:37:47.271Z,99268.19
2023-03-24T03:40:18.321Z,99274.69
2023-03-24T03:42:46.834Z,99266.16
2023-03-24T03:45:15.033Z,99271.63
2023-03-24T03:47:42.307Z,99270.41
2023-03-24T03:50:10.052Z,99284.56
2023-03-24T03:52:39.630Z,99271.00
2023-03-24T03:55:07.333Z,99277.28
2023-03-24T03:57:35.994Z,99288.41
2023-03-24T04:00:08.300Z,99280.69
2023-03-24T04:02:35.970Z,99282.91
2023-03-24T04:05:07.034Z,99284.50
2023-03-24T04:07:37.434Z,99291.00
2023-03-24T04:10:07.970Z,99285.31
2023-03-24T04:12:38.050Z,99296.06
2023-03-24T04:15:05.412Z,99293.44
2023-03-24T04:17:35.599Z,99291.63
2023-03-24T04:20:06.777Z,99286.34
2023-03-24T04:22:38.680Z,99296.06
2023-03-24T04:25:06.396Z,99299.53
2023-03-24T04:27:39.094Z,99304.38
2023-03-24T04:30:09.220Z,99306.19
2023-03-24T04:32:43.670Z,99302.75
2023-03-24T04:35:14.708Z,99300.31
2023-03-24T04:37:42.439Z,99308.19
2023-03-24T04:40:11.690Z,99313.06
2023-03-24T04:42:43.102Z,99311.84
2023-03-24T04:45:10.788Z,99315.47
2023-03-24T04:47:43.525Z,99309.38
2023-03-24T04:50:13.034Z,99311.63
2023-03-24T04:52:40.986Z,99313.06
2023-03-24T04:55:11.448Z,99315.06
2023-03-24T04:57:38.539Z,99322.72
2023-03-24T05:00:08.657Z,99330.84
2023-03-24T05:02:36.204Z,99319.50
2023-03-24T05:05:03.516Z,99325.34
2023-03-24T05:07:30.467Z,99327.78
2023-03-24T05:09:57.901Z,99327.16
2023-03-24T05:12:24.894Z,99329.97
2023-03-24T05:14:52.012Z,99332.81
2023-03-24T05:17:19.121Z,99336.47
2023-03-24T05:19:46.295Z,99339.09
2023-03-24T05:22:13.348Z,99347.00
2023-03-24T05:24:40.920Z,99347.19
2023-03-24T05:27:08.131Z,99351.63
2023-03-24T05:29:35.328Z,99354.44
2023-03-24T05:32:02.264Z,99360.09
2023-03-24T05:34:29.328Z,99357.28
2023-03-24T05:36:56.384Z,99348.56
2023-03-24T05:39:23.329Z,99358.28
2023-03-24T05:41:50.461Z,99361.28
2023-03-24T05:44:17.652Z,99366.38
2023-03-24T05:46:44.685Z,99368.00
2023-03-24T05:49:11.732Z,99373.09
2023-03-24T05:51:38.766Z,99368.19
2023-03-24T05:54:06.522Z,99369.59
2023-03-24T05:56:33.735Z,99362.31
2023-03-24T05:59:00.703Z,99366.38
2023-03-24T06:01:31.568Z,99368.59
2023-03-24T06:03:58.776Z,99373.84
2023-03-24T06:06:26.636Z,99378.28
2023-03-24T06:08:55.011Z,99385.19
2023-03-24T06:11:22.426Z,99379.34
2023-03-24T06:13:49.526Z,99378.34
2023-03-24T06:16:19.248Z,99383.16
2023-03-24T06:18:53.380Z,99389.06
2023-03-24T06:21:20.946Z,99393.56
2023-03-24T06:23:48.200Z,99391.34
2023-03-24T06:26:15.437Z,99393.59
2023-03-24T06:28:43.564Z,99393.00
2023-03-24T06:31:15.498Z,99397.03
2023-03-24T06:33:42.961Z,99399.31
2023-03-24T06:36:11.049Z,99391.00
2023-03-24T06:38:38.144Z,99392.88
2023-03-24T06:41:05.924Z,99393.28
2023-03-24T06:43:33.262Z,99398.78
2023-03-24T06:46:00.418Z,99399.22
2023-03-24T06:48:27.915Z,99388.66
2023-03-24T06:50:55.484Z,99396.03
2023-03-24T06:53:23.012Z,99391.59
2023-03-24T06:55:50.385Z,99385.53
2023-03-24T06:58:18.331Z,99399.13
2023-03-24T07:00:47.330Z,99397.94
2023-03-24T07:03:16.519Z,99404.06
2023-03-24T07:05:45.031Z,99396.78
2023-03-24T07:10:51.583Z,99405.31
2023-03-24T07:13:18.688Z,99413.22
2023-03-24T07:15:46.131Z,99416.94
2023-03-24T07:18:14.042Z,99420.09
2023-03-24T07:20:42.089Z,99420.56
2023-03-24T07:23:09.346Z,99436.81
2023-03-24T07:25:36.650Z,99437.84
2023-03-24T07:28:03.854Z,99442.53
2023-03-24T07:30:39.895Z,99446.56
2023-03-24T07:33:11.201Z,99446.41
2023-03-24T07:35:38.692Z,99437.28
2023-03-24T07:38:05.864Z,99438.69
2023-03-24T07:40:35.512Z,99438.91
2023-03-24T07:43:05.489Z,99445.41
2023-03-24T07:45:33.132Z,99445.78
2023-03-24T07:48:02.618Z,99446.81
2023-03-24T07:50:30.345Z,99451.06
2023-03-24T07:52:59.986Z,99448.38
2023-03-24T07:55:27.662Z,99442.84
2023-03-24T07:57:54.899Z,99443.31
2023-03-24T08:00:22.252Z,99438.88
2023-03-24T08:02:50.766Z,99440.63
2023-03-24T08:05:19.955Z,99444.72
2023-03-24T08:07:53.753Z,99442.03
2023-03-24T08:10:22.158Z,99439.47
2023-03-24T08:12:49.279Z,99444.94
2023-03-24T08:15:16.885Z,99452.38
2023-03-24T08:17:44.250Z,99444.69
2023-03-24T08:20:15.243Z,99449.66
2023-03-24T08:22:43.467Z,99463.13
2023-03-24T08:25:11.382Z,99454.00
2023-03-24T08:27:39.871Z,99449.72
2023-03-24T08:30:07.709Z,99452.28
2023-03-24T08:32:35.344Z,99453.81
2023-03-24T08:35:05.421Z,99455.34
2023-03-24T08:37:32.783Z,99447.94
2023-03-24T08:40:12.696Z,99458.06
2023-03-24T08:42:40.092Z,99452.59
2023-03-24T08:45:07.878Z,99448.59
2023-03-24T08:47:35.084Z,99457.84
2023-03-24T08:50:02.244Z,99460.31
2023-03-24T08:52:29.436Z,99465.00
2023-03-24T08:54:56.887Z,99464.81
2023-03-24T08:57:24.044Z,99467.44
2023-03-24T08:59:51.516Z,99463.41
2023-03-24T09:02:19.209Z,99466.88
2023-03-24T09:04:46.812Z,99471.28
2023-03-24T09:07:13.932Z,99477.16
2023-03-24T09:09:41.268Z,99481.00
2023-03-24T09:12:08.499Z,99474.06
2023-03-24T09:14:35.851Z,99475.91
2023-03-24T09:17:03.644Z,99474.50
2023-03-24T09:19:32.475Z,99470.41
2023-03-24T09:21:59.928Z,99479.25
2023-03-24T09:24:27.147Z,99473.50
2023-03-24T09:26:54.579Z,99474.06
2023-03-24T09:29:21.843Z,99483.81
2023-03-24T09:31:49.017Z,99483.38
2023-03-24T09:34:17.195Z,99475.44
2023-03-24T09:36:44.047Z,99480.72
2023-03-24T09:39:11.191Z,99469.31
2023-03-24T09:41:38.330Z,99473.44
2023-03-24T09:44:19.181Z,99474.56
2023-03-24T09:46:49.047Z,99466.94
2023-03-24T09:51:45.208Z,99461.91
2023-03-24T09:54:16.833Z,99463.94
2023-03-24T09:56:46.740Z,99456.63
2023-03-24T09:59:18.513Z,99458.00
2023-03-24T10:01:45.933Z,99463.91
2023-03-24T10:04:16.300Z,99465.91
2023-03-24T10:06:44.145Z,99470.13
2023-03-24T10:09:14.145Z,99472.28
2023-03-24T10:14:11.931Z,99476.72
2023-03-24T10:16:40.754Z,99468.94
2023-03-24T10:19:11.572Z,99454.66
2023-03-24T10:21:42.311Z,99456.31
2023-03-24T10:24:13.929Z,99455.03
2023-03-24T10:26:46.161Z,99449.47
2023-03-24T10:29:17.421Z,99452.84
2023-03-24T10:31:48.011Z,99449.16
2023-03-24T10:39:19.626Z,99449.25
2023-03-24T10:41:50.923Z,99449.75
2023-03-24T10:44:19.071Z,99455.81
2023-03-24T10:46:48.010Z,99453.16
2023-03-24T10:49:18.584Z,99470.56
2023-03-24T10:51:47.295Z,99482.06
2023-03-24T10:59:18.830Z,99475.97
2023-03-24T11:01:46.937Z,99471.63
2023-03-24T11:04:17.367Z,99471.91
2023-03-24T11:06:50.253Z,99466.09
2023-03-24T11:09:18.012Z,99467.72
2023-03-24T11:11:45.227Z,99453.84
2023-03-24T11:14:16.286Z,99457.69
2023-03-24T11:16:44.429Z,99447.63
2023-03-24T11:19:21.744Z,99442.28
2023-03-24T11:21:50.477Z,99454.63
2023-03-24T11:24:19.021Z,99438.63
2023-03-24T11:26:48.998Z,99445.88
2023-03-24T11:29:18.986Z,99452.78
2023-03-24T11:31:51.975Z,99440.50
2023-03-24T11:34:20.963Z,99448.59
2023-03-24T11:39:20.460Z,99445.50
2023-03-24T11:41:53.296Z,99452.38
2023-03-24T11:44:23.272Z,99459.66
2023-03-24T11:46:53.851Z,99458.75
2023-03-24T11:49:23.044Z,99466.28
2023-03-24T11:51:52.275Z,99466.56
2023-03-24T11:54:19.127Z,99467.28
2023-03-24T11:56:48.481Z,99472.03
2023-03-24T11:59:18.777Z,99466.78
2023-03-24T12:01:51.617Z,99468.72
2023-03-24T12:04:21.732Z,99464.88
2023-03-24T12:09:20.387Z,99449.25
2023-03-24T12:14:19.873Z,99451.19
2023-03-24T12:16:52.545Z,99438.88
2023-03-24T12:19:20.097Z,99450.56
2023-03-24T12:21:50.241Z,99458.69
2023-03-24T12:24:18.653Z,99446.66
2023-03-24T12:26:46.339Z,99443.06
2023-03-24T12:29:16.980Z,99446.22
2023-03-24T12:34:14.357Z,99443.88
2023-03-24T12:36:44.297Z,99455.28
2023-03-24T12:44:11.444Z,99451.22
2023-03-24T12:49:16.518Z,99458.53
2023-03-24T12:51:47.243Z,99450.72
2023-03-24T12:54:20.654Z,99459.03
2023-03-24T12:56:49.764Z,99452.25
2023-03-24T12:59:19.994Z,99449.97
2023-03-24T13:01:53.504Z,99465.28
2023-03-24T13:04:23.410Z,99439.66
2023-03-24T13:06:55.041Z,99431.88
2023-03-24T13:12:04.635Z,99428.22
2023-03-24T13:14:42.637Z,99420.47
2023-03-24T13:17:15.054Z,99420.03
2023-03-24T13:19:42.782Z,99411.09
2023-03-24T13:22:15.155Z,99421.06
2023-03-24T13:24:42.524Z,99414.38
2023-03-24T13:27:12.560Z,99407.00
2023-03-24T13:29:49.269Z,99399.84
2023-03-24T13:32:19.904Z,99400.59
2023-03-24T13:34:51.685Z,99387.94
2023-03-24T13:37:23.220Z,99392.38
2023-03-24T13:39:56.025Z,99397.56
2023-03-24T13:42:26.171Z,99388.34
2023-03-24T13:47:20.686Z,99375.72
2023-03-24T13:49:50.765Z,99362.38
2023-03-24T13:52:21.358Z,99348.59
2023-03-24T13:54:49.115Z,99379.91
2023-03-24T13:57:21.194Z,99419.50
2023-03-24T13:59:48.554Z,99439.91
2023-03-24T14:02:18.848Z,99440.44
2023-03-24T14:04:46.092Z,99420.31
2023-03-24T14:07:16.185Z,99409.44
2023-03-24T14:09:57.612Z,99402.44
2023-03-24T14:12:24.668Z,99403.13
2023-03-24T14:15:00.182Z,99407.63
2023-03-24T14:19:57.666Z,99385.94
2023-03-24T14:22:30.122Z,99369.69
2023-03-24T14:24:59.059Z,99368.44
2023-03-24T14:27:29.854Z,99356.59
2023-03-24T14:32:27.495Z,99344.84
2023-03-24T14:34:58.732Z,99338.16
2023-03-24T14:37:28.024Z,99355.41
2023-03-24T14:39:57.870Z,99360.44
2023-03-24T14:42:28.979Z,99349.66
2023-03-24T14:44:57.547Z,99335.13
2023-03-24T14:47:29.637Z,99335.44
2023-03-24T14:49:57.644Z,99334.34
2023-03-24T14:52:30.689Z,99332.88
2023-03-24T14:55:00.774Z,99319.44
2023-03-24T14:57:28.301Z,99326.94
2023-03-24T14:59:56.008Z,99334.84
2023-03-24T15:02:26.495Z,99327.31
2023-03-24T15:07:29.988Z,99318.38
2023-03-24T15:09:57.355Z,99322.72
2023-03-24T15:12:25.140Z,99326.59
2023-03-24T15:14:52.728Z,99343.75
2023-03-24T15:19:53.326Z,99381.16
2023-03-24T15:22:21.099Z,99389.31
2023-03-24T15:24:49.217Z,99391.16
2023-03-24T15:27:16.331Z,99384.47
2023-03-24T15:29:43.508Z,99395.97
2023-03-24T15:32:13.929Z,99371.81
2023-03-24T15:37:12.136Z,99375.63
2023-03-24T15:42:09.698Z,99359.19
2023-03-24T15:49:34.186Z,99327.94
2023-03-24T15:52:02.453Z,99341.38
2023-03-24T15:54:32.488Z,99347.69
2023-03-24T15:57:01.401Z,99367.38
2023-03-24T15:59:32.226Z,99359.69
2023-03-24T16:01:59.913Z,99346.06
2023-03-24T16:06:58.131Z,99328.78
2023-03-24T16:09:28.306Z,99328.97
2023-03-24T16:11:55.275Z,99322.69
2023-03-24T16:14:22.719Z,99327.56
2023-03-24T16:16:53.767Z,99323.88
2023-03-24T16:19:21.542Z,99326.53
2023-03-24T16:21:48.631Z,99325.50
2023-03-24T16:24:16.343Z,99328.53
2023-03-24T16:26:44.099Z,99324.09
2023-03-24T16:29:14.490Z,99321.47
2023-03-24T16:34:09.248Z,99318.63
2023-03-24T16:36:36.738Z,99312.09
2023-03-24T16:39:04.253Z,99307.84
2023-03-24T16:41:31.696Z,99303.78
2023-03-24T16:43:59.026Z,99311.91
2023-03-24T16:48:53.944Z,99397.22
2023-03-24T16:53:48.278Z,99387.88
2023-03-24T17:03:50.103Z,99366.72
2023-03-24T17:06:17.918Z,99370.75
2023-03-24T17:08:45.547Z,99375.59
2023-03-24T17:11:12.762Z,99358.16
2023-03-24T17:16:06.735Z,99376.63
2023-03-24T17:18:34.108Z,99397.72
2023-03-24T17:21:02.072Z,99403.78
2023-03-24T17:23:30.889Z,99393.44
2023-03-24T17:25:58.060Z,99373.31
2023-03-24T17:28:24.976Z,99372.31
2023-03-24T17:30:52.497Z,99373.69
2023-03-24T17:33:19.721Z,99378.59
2023-03-24T17:35:47.143Z,99379.59
2023-03-24T17:38:17.067Z,99376.56
2023-03-24T17:45:39.921Z,99382.81
2023-03-24T17:48:08.170Z,99393.56
2023-03-24T17:53:03.287Z,99391.50
2023-03-24T17:55:30.717Z,99389.47
2023-03-24T17:57:57.854Z,99366.69
2023-03-24T18:00:24.967Z,99371.97
2023-03-24T18:02:53.057Z,99369.13
2023-03-24T18:05:20.503Z,99379.34
2023-03-24T18:07:48.079Z,99376.47
2023-03-24T18:10:15.936Z,99378.75
2023-03-24T18:12:43.449Z,99378.53
2023-03-24T18:15:11.534Z,99384.00
2023-03-24T18:20:10.454Z,99384.00
2023-03-24T18:22:38.091Z,99380.16
2023-03-24T18:25:05.416Z,99390.09
2023-03-24T18:27:33.094Z,99382.59
2023-03-24T18:30:00.309Z,99398.22
2023-03-24T18:32:27.888Z,99391.94
2023-03-24T18:34:55.001Z,99399.00
2023-03-24T18:37:22.120Z,99387.84
2023-03-24T18:39:49.607Z,99398.31
2023-03-24T18:42:16.932Z,99395.06
2023-03-24T18:44:45.416Z,99403.34
2023-03-24T18:47:13.671Z,99406.56
2023-03-24T18:49:41.217Z,99415.06
2023-03-24T18:52:09.765Z,99416.06
2023-03-24T18:54:35.442Z,99413.81
2023-03-24T18:57:04.799Z,99418.63
2023-03-24T18:59:31.930Z,99417.56
2023-03-24T19:02:00.862Z,99412.31
2023-03-24T19:04:28.672Z,99406.03
2023-03-24T19:06:56.877Z,99412.72
2023-03-24T19:09:26.445Z,99412.88
2023-03-24T19:11:53.426Z,99414.88
2023-03-24T19:14:20.479Z,99410.44
2023-03-24T19:19:14.547Z,99410.59
2023-03-24T19:21:42.142Z,99399.66
2023-03-24T19:24:30.828Z,99410.34
2023-03-24T19:27:00.017Z,99401.25
2023-03-24T19:29:28.776Z,99400.25
2023-03-24T19:31:56.122Z,99405.69
2023-03-24T19:34:23.381Z,99402.69
2023-03-24T19:36:50.553Z,99409.97
2023-03-24T19:41:44.861Z,99417.44
2023-03-24T19:44:11.991Z,99414.81
2023-03-24T19:46:39.005Z,99412.00
2023-03-24T19:49:06.652Z,99409.78
2023-03-24T19:51:33.743Z,99415.69
2023-03-24T19:54:00.900Z,99398.50
2023-03-24T19:56:27.773Z,99411.44
2023-03-24T20:01:21.754Z,99395.84
2023-03-24T20:03:49.229Z,99392.41
2023-03-24T20:06:17.867Z,99393.41
2023-03-24T20:08:46.583Z,99396.66
2023-03-24T20:11:13.473Z,99389.19
2023-03-24T20:13:40.397Z,99396.69
2023-03-24T20:16:07.268Z,99396.28
2023-03-24T20:18:35.143Z,99396.03
2023-03-24T20:21:02.427Z,99402.75
2023-03-24T20:23:29.458Z,99398.50
2023-03-24T20:25:58.732Z,99401.13
2023-03-24T20:28:25.905Z,99396.66
2023-03-24T20:30:58.607Z,99407.00
2023-03-24T20:33:28.923Z,99400.72
2023-03-24T20:35:57.009Z,99399.91
2023-03-24T20:38:24.493Z,99400.13
2023-03-24T20:40:54.387Z,99396.31
2023-03-24T20:43:21.351Z,99394.28
2023-03-24T20:45:48.596Z,99386.59
2023-03-24T20:48:15.758Z,99395.09
2023-03-24T20:50:43.656Z,99402.81
2023-03-24T20:53:10.605Z,99396.50
2023-03-24T20:55:37.888Z,99402.16
2023-03-24T20:58:08.432Z,99395.63
2023-03-24T21:00:38.208Z,99397.28
2023-03-24T21:03:05.298Z,99402.31
2023-03-24T21:05:32.935Z,99404.56
2023-03-24T21:10:27.457Z,99411.88
2023-03-24T21:12:55.724Z,99400.34
2023-03-24T21:15:25.637Z,99393.22
2023-03-24T21:22:54.445Z,99409.16
2023-03-24T21:25:23.285Z,99408.16
2023-03-24T21:27:50.386Z,99405.94
2023-03-24T21:30:19.430Z,99405.16
2023-03-24T21:32:47.293Z,99405.56
2023-03-24T21:35:14.941Z,99409.38
2023-03-24T21:37:46.093Z,99405.16
2023-03-24T21:40:15.543Z,99401.47
2023-03-24T21:42:47.130Z,99405.81
2023-03-24T21:47:43.022Z,99404.22
2023-03-24T21:50:11.788Z,99405.47
2023-03-24T21:52:46.201Z,99418.84
2023-03-24T21:55:15.081Z,99414.41
2023-03-24T21:57:43.158Z,99421.09
2023-03-24T22:00:15.290Z,99407.94
2023-03-24T22:02:45.812Z,99415.00
2023-03-24T22:05:14.351Z,99420.69
2023-03-24T22:07:41.970Z,99422.13
2023-03-24T22:12:35.750Z,99418.47
2023-03-24T22:15:02.871Z,99434.50
2023-03-24T22:17:29.870Z,99428.84
2023-03-24T22:19:56.809Z,99430.50
2023-03-24T22:22:24.098Z,99444.84
2023-03-24T22:24:51.716Z,99437.94
2023-03-24T22:27:19.214Z,99440.97
2023-03-24T22:29:46.018Z,99438.53
2023-03-24T22:34:38.388Z,99440.50
2023-03-24T22:37:05.238Z,99440.09
2023-03-24T22:39:33.600Z,99438.25
2023-03-24T22:42:01.523Z,99437.47
2023-03-24T22:44:28.700Z,99435.81
2023-03-24T22:46:55.738Z,99446.34
2023-03-24T22:49:22.859Z,99448.00
2023-03-24T22:51:50.064Z,99449.59
2023-03-24T22:54:16.926Z,99456.69
2023-03-24T22:56:43.924Z,99448.59
2023-03-24T22:59:11.057Z,99455.09
2023-03-24T23:01:37.929Z,99452.84
2023-03-24T23:04:04.867Z,99454.28
2023-03-24T23:09:00.649Z,99456.91
2023-03-24T23:11:29.802Z,99457.13
2023-03-24T23:14:05.307Z,99454.50
2023-03-24T23:16:33.598Z,99463.00
2023-03-24T23:19:01.032Z,99450.41
2023-03-24T23:21:28.766Z,99465.22
2023-03-24T23:23:55.689Z,99470.66
2023-03-24T23:26:26.088Z,99464.56
2023-03-24T23:28:53.980Z,99466.03
2023-03-24T23:31:23.226Z,99468.03
2023-03-24T23:36:19.304Z,99468.47
2023-03-24T23:38:48.191Z,99467.91
2023-03-24T23:41:15.312Z,99468.09
2023-03-24T23:43:42.178Z,99474.16
2023-03-24T23:46:09.551Z,99477.81
2023-03-24T23:48:37.767Z,99484.28
2023-03-24T23:51:07.818Z,99479.00
2023-03-24T23:53:35.579Z,99484.47
2023-03-24T23:56:07.036Z,99474.31
2023-03-24T23:58:35.962Z,99484.84
